PAKTPAGS

Guest
Details From PAKT - KETCHIKAN INTL
To PAGS - GUSTAVUS
Flight Number -
Tags generated
Created
Modified
Stats Distance 226 nm / 419 km
Max Altitude 28,000 ft / 8,534 m
Waypoints 4
Social Downloads 0
Likes 0
Share VATSIM

Download

Looking for another format? Having issues loading an existing format? Contact us
Advertisement - Login to hide

Notes

Basic altitude profile: - Ascent Rate: 2500ft/min - Ascent Speed: 250kts - Cruise Altitude: 35000ft - Cruise Speed: 420kts - Descent Rate: 1500ft/min - Descent Speed: 250kts Options: - Use NATs: yes - Use PACOTS: yes - Use low airways: yes - Use high airways: yes

Route

PAKT SQM B37 EEF PAGS

ID Type Via Altitude Latitude Longitude Leg Dist Tot Dist Heading (true) Name
O PAKT APT - 0 ft / 0 m 55.35554˚ -131.71374˚ - 0 nm - KETCHIKAN INTL
SQM NDB - 28,000 ft / 8,534 m 56.46458˚ -133.09739˚ 81 nm 81 nm 326° / 324° SUMNER STRAIT NDB
EEF NDB B37 (AWY-LO) 7,000 ft / 2,134 m 58.17097˚ -135.25792˚ 124 nm 205 nm 327° / 325° ELEPHANT NDB
O PAGS APT - 0 ft / 0 m 58.42469˚ -135.70896˚ 20 nm 226 nm 317° / 317° GUSTAVUS

Altitude Profile

Advertisement - Login to hide

Weather


0- 5 10 15 20 25 30 35+ Temperature / ° C

Clouds and Precipitation
Forecast for 2018-05-24 00:00 UTC. Updated 2 hours ago

Ground ~20,000 ft ~40,000 ft Winds

PAKT

Details ICAO PAKT (KTN)
Name KETCHIKAN INTL
Region USA (Alaska)
Timezone Unknown (UTC+0.0)
Stats Elevation 88 ft / 27 m (AMSL)
Location 55.355545° -131.713737°
Runways 1
Magnetic Variation 18.429° E

METAR

PAKT 240053Z 13006KT 10SM FEW007 BKN020 OVC039 12/11 A2987

Decode

TAF

PAKT 240051Z 2401/2424 VRB05KT P6SM VCSH FEW005 BKN015 OVC030 TEMPO 2401/2405 2SM -SHRA BR SCT005 OVC010 FM241300 13005KT P6SM OVC030 FM241700 13008KT P6SM VCSH BKN040 AMD LTD TO CLD VIS AND WIND 2406/2415

Decode

Departure Runways

ID Width Length Bearing (true) Bearing (mag) Surface Threshold Offset Overrun Length
11 150 ft / 46 m 7,485 ft / 2,281 m 135.66° 117.23° Asphalt 0 ft / 0 m 200 ft / 61 m
29 150 ft / 46 m 7,485 ft / 2,281 m 315.68° 297.25° Asphalt 0 ft / 0 m 100 ft / 30 m

PAGS

Details ICAO PAGS (GST)
Name GUSTAVUS
Region USA (Alaska)
Timezone America/Juneau (UTC-8.0)
Stats Elevation 34 ft / 10 m (AMSL)
Location 58.424690° -135.708964°
Runways 2
Magnetic Variation 18.923° E

METAR

PAGS 240056Z AUTO 25006KT 10SM FEW050 BKN080 14/03 A2981 RMK AO2 SLP097 T01440028

Decode

TAF

PAGS 232335Z 2400/2424 27008KT P6SM SCT050 BKN080 FM240300 30006KT P6SM VCSH BKN050 BKN080 AMD LTD TO CLD VIS AND WIND

Decode

Destination Runways

ID Width Length Bearing (true) Bearing (mag) Surface Threshold Offset Overrun Length
02 60 ft / 18 m 3,003 ft / 915 m 40.96° 22.04° Asphalt 0 ft / 0 m 0 ft / 0 m
11 150 ft / 46 m 6,704 ft / 2,044 m 135.06° 116.14° Asphalt 0 ft / 0 m 0 ft / 0 m
20 60 ft / 18 m 3,003 ft / 915 m 220.97° 202.05° Asphalt 0 ft / 0 m 0 ft / 0 m
29 150 ft / 46 m 6,704 ft / 2,044 m 315.08° 296.16° Asphalt 0 ft / 0 m 0 ft / 0 m

Popular Alternatives